sensor_id;sensor_type;location;lat;lon;timestamp;pressure;altitude;pressure_sealevel;temperature;humidity
61408;BME280;47274;43.054;25.146;2023-08-01T00:01:26;95212.47;;;19.56;71.61
61408;BME280;47274;43.054;25.146;2023-08-01T00:03:52;95222.47;;;19.59;71.52
61408;BME280;47274;43.054;25.146;2023-08-01T00:06:32;95202.28;;;19.48;71.88
61408;BME280;47274;43.054;25.146;2023-08-01T00:09:00;95194.31;;;19.43;71.39
61408;BME280;47274;43.054;25.146;2023-08-01T00:11:26;95187.31;;;19.44;70.95
61408;BME280;47274;43.054;25.146;2023-08-01T00:13:52;95183.56;;;19.33;71.72
61408;BME280;47274;43.054;25.146;2023-08-01T00:16:23;95226.69;;;19.54;70.67
61408;BME280;47274;43.054;25.146;2023-08-01T00:18:49;95205.03;;;19.28;71.70
61408;BME280;47274;43.054;25.146;2023-08-01T00:21:18;95229.63;;;19.26;76.39
61408;BME280;47274;43.054;25.146;2023-08-01T00:23:54;95168.19;;;18.80;75.81
61408;BME280;47274;43.054;25.146;2023-08-01T00:26:22;95169.06;;;18.54;77.72
61408;BME280;47274;43.054;25.146;2023-08-01T00:28:49;95157.09;;;18.46;78.13
61408;BME280;47274;43.054;25.146;2023-08-01T00:31:24;95160.13;;;18.43;77.13
61408;BME280;47274;43.054;25.146;2023-08-01T00:33:53;95161.69;;;18.44;78.16
61408;BME280;47274;43.054;25.146;2023-08-01T00:36:21;95135.75;;;18.31;76.65
61408;BME280;47274;43.054;25.146;2023-08-01T00:38:57;95167.06;;;18.56;74.58
61408;BME280;47274;43.054;25.146;2023-08-01T00:41:26;95145.31;;;18.50;73.47
61408;BME280;47274;43.054;25.146;2023-08-01T00:43:52;95139.31;;;18.43;73.30
61408;BME280;47274;43.054;25.146;2023-08-01T00:46:21;95227.41;;;18.84;74.38
61408;BME280;47274;43.054;25.146;2023-08-01T00:48:50;95236.00;;;18.78;76.62
61408;BME280;47274;43.054;25.146;2023-08-01T00:51:34;95136.00;;;18.16;75.49
61408;BME280;47274;43.054;25.146;2023-08-01T00:54:12;95183.88;;;18.46;74.79
61408;BME280;47274;43.054;25.146;2023-08-01T00:56:47;95172.09;;;18.44;74.26
61408;BME280;47274;43.054;25.146;2023-08-01T00:59:21;95153.50;;;18.40;73.98
61408;BME280;47274;43.054;25.146;2023-08-01T01:01:58;95120.59;;;18.21;73.80
61408;BME280;47274;43.054;25.146;2023-08-01T01:04:28;95184.03;;;18.58;73.08
61408;BME280;47274;43.054;25.146;2023-08-01T01:07:00;95205.94;;;18.96;71.58
61408;BME280;47274;43.054;25.146;2023-08-01T01:09:29;95142.88;;;18.55;70.67
61408;BME280;47274;43.054;25.146;2023-08-01T01:12:00;95126.94;;;18.38;70.22
61408;BME280;47274;43.054;25.146;2023-08-01T01:14:28;95112.34;;;18.37;70.17
61408;BME280;47274;43.054;25.146;2023-08-01T01:16:55;95138.69;;;18.47;71.47
61408;BME280;47274;43.054;25.146;2023-08-01T01:19:28;95203.13;;;18.97;70.77
61408;BME280;47274;43.054;25.146;2023-08-01T01:21:59;95110.16;;;18.41;69.08
61408;BME280;47274;43.054;25.146;2023-08-01T01:24:28;95130.66;;;18.56;69.79
61408;BME280;47274;43.054;25.146;2023-08-01T01:26:54;95164.00;;;18.79;69.39
61408;BME280;47274;43.054;25.146;2023-08-01T01:29:21;95133.84;;;18.64;66.99
61408;BME280;47274;43.054;25.146;2023-08-01T01:31:48;95148.63;;;18.77;67.95
61408;BME280;47274;43.054;25.146;2023-08-01T01:34:24;95092.59;;;18.30;68.03
61408;BME280;47274;43.054;25.146;2023-08-01T01:36:52;95127.88;;;18.57;67.50
61408;BME280;47274;43.054;25.146;2023-08-01T01:39:18;95162.44;;;18.78;68.38
61408;BME280;47274;43.054;25.146;2023-08-01T01:41:47;95154.03;;;18.62;68.46
61408;BME280;47274;43.054;25.146;2023-08-01T01:44:12;95138.47;;;18.49;68.89
61408;BME280;47274;43.054;25.146;2023-08-01T01:46:43;95098.00;;;18.15;69.15
61408;BME280;47274;43.054;25.146;2023-08-01T01:49:12;95181.44;;;18.65;69.32
61408;BME280;47274;43.054;25.146;2023-08-01T01:51:40;95180.63;;;18.71;67.50
61408;BME280;47274;43.054;25.146;2023-08-01T01:54:06;95158.28;;;18.57;66.90
61408;BME280;47274;43.054;25.146;2023-08-01T01:56:32;95135.69;;;18.51;66.54
61408;BME280;47274;43.054;25.146;2023-08-01T01:59:03;95115.09;;;18.49;65.74
61408;BME280;47274;43.054;25.146;2023-08-01T02:01:29;95170.59;;;18.88;65.54
61408;BME280;47274;43.054;25.146;2023-08-01T02:04:09;95144.81;;;18.66;66.76
61408;BME280;47274;43.054;25.146;2023-08-01T02:06:34;95089.78;;;18.31;65.23
61408;BME280;47274;43.054;25.146;2023-08-01T02:09:03;95097.94;;;18.41;65.72
61408;BME280;47274;43.054;25.146;2023-08-01T02:11:30;95179.75;;;18.90;65.25
61408;BME280;47274;43.054;25.146;2023-08-01T02:13:56;95173.34;;;18.93;66.42
61408;BME280;47274;43.054;25.146;2023-08-01T02:16:22;95137.84;;;18.74;66.26
61408;BME280;47274;43.054;25.146;2023-08-01T02:18:48;95133.09;;;18.57;65.58
61408;BME280;47274;43.054;25.146;2023-08-01T02:21:31;95190.59;;;18.87;65.35
61408;BME280;47274;43.054;25.146;2023-08-01T02:24:07;95130.47;;;18.57;65.90
61408;BME280;47274;43.054;25.146;2023-08-01T02:26:34;95094.56;;;18.41;64.63
61408;BME280;47274;43.054;25.146;2023-08-01T02:28:59;95116.72;;;18.50;65.13
61408;BME280;47274;43.054;25.146;2023-08-01T02:31:28;95124.91;;;18.54;65.53
61408;BME280;47274;43.054;25.146;2023-08-01T02:33:54;95150.88;;;18.54;66.01
61408;BME280;47274;43.054;25.146;2023-08-01T02:36:23;95161.66;;;18.57;66.76
61408;BME280;47274;43.054;25.146;2023-08-01T02:38:52;95158.72;;;18.34;68.31
61408;BME280;47274;43.054;25.146;2023-08-01T02:41:18;95132.75;;;18.27;67.57
61408;BME280;47274;43.054;25.146;2023-08-01T02:43:46;95150.69;;;18.42;66.12
61408;BME280;47274;43.054;25.146;2023-08-01T02:46:14;95113.97;;;18.32;65.75
61408;BME280;47274;43.054;25.146;2023-08-01T02:48:42;95116.97;;;18.29;64.76
61408;BME280;47274;43.054;25.146;2023-08-01T02:51:11;95117.94;;;18.41;64.97
61408;BME280;47274;43.054;25.146;2023-08-01T02:53:37;95168.22;;;18.73;65.64
61408;BME280;47274;43.054;25.146;2023-08-01T02:56:06;95132.91;;;18.39;65.33
61408;BME280;47274;43.054;25.146;2023-08-01T02:58:33;95090.69;;;17.98;66.90
61408;BME280;47274;43.054;25.146;2023-08-01T03:01:09;95117.22;;;17.94;67.65
61408;BME280;47274;43.054;25.146;2023-08-01T03:03:36;95195.28;;;18.39;69.37
61408;BME280;47274;43.054;25.146;2023-08-01T03:06:02;95187.91;;;18.22;71.51
61408;BME280;47274;43.054;25.146;2023-08-01T03:08:31;95130.22;;;17.87;71.89
61408;BME280;47274;43.054;25.146;2023-08-01T03:11:01;95099.66;;;17.56;71.01
61408;BME280;47274;43.054;25.146;2023-08-01T03:13:30;95110.03;;;17.69;69.70
61408;BME280;47274;43.054;25.146;2023-08-01T03:15:58;95171.16;;;17.98;68.96
61408;BME280;47274;43.054;25.146;2023-08-01T03:18:34;95110.03;;;17.63;69.30
61408;BME280;47274;43.054;25.146;2023-08-01T03:21:03;95207.47;;;18.18;70.21
61408;BME280;47274;43.054;25.146;2023-08-01T03:23:29;95145.75;;;17.74;70.86
61408;BME280;47274;43.054;25.146;2023-08-01T03:25:55;95174.16;;;17.82;72.36
61408;BME280;47274;43.054;25.146;2023-08-01T03:28:26;95215.69;;;18.02;74.24
61408;BME280;47274;43.054;25.146;2023-08-01T03:30:52;95142.75;;;17.57;74.37
61408;BME280;47274;43.054;25.146;2023-08-01T03:33:20;95163.34;;;17.65;73.10
61408;BME280;47274;43.054;25.146;2023-08-01T03:35:46;95112.81;;;17.35;72.94
61408;BME280;47274;43.054;25.146;2023-08-01T03:38:14;95145.97;;;17.59;71.11
61408;BME280;47274;43.054;25.146;2023-08-01T03:40:40;95137.19;;;17.60;69.46
61408;BME280;47274;43.054;25.146;2023-08-01T03:43:09;95131.19;;;17.73;68.19
61408;BME280;47274;43.054;25.146;2023-08-01T03:45:35;95175.13;;;18.08;67.94
61408;BME280;47274;43.054;25.146;2023-08-01T03:48:04;95155.19;;;17.95;67.90
61408;BME280;47274;43.054;25.146;2023-08-01T03:50:41;95113.03;;;17.73;67.79
61408;BME280;47274;43.054;25.146;2023-08-01T03:53:09;95149.97;;;18.02;67.28
61408;BME280;47274;43.054;25.146;2023-08-01T03:55:38;95108.06;;;17.85;66.82
61408;BME280;47274;43.054;25.146;2023-08-01T03:58:04;95142.78;;;18.10;66.01
61408;BME280;47274;43.054;25.146;2023-08-01T04:00:33;95143.97;;;18.14;66.50
61408;BME280;47274;43.054;25.146;2023-08-01T04:03:00;95169.50;;;18.37;66.73
61408;BME280;47274;43.054;25.146;2023-08-01T04:05:28;95211.81;;;18.78;66.59
61408;BME280;47274;43.054;25.146;2023-08-01T04:07:53;95200.00;;;18.68;66.67
61408;BME280;47274;43.054;25.146;2023-08-01T04:10:23;95217.59;;;18.80;66.24
61408;BME280;47274;43.054;25.146;2023-08-01T04:12:49;95216.00;;;18.79;66.50
61408;BME280;47274;43.054;25.146;2023-08-01T04:15:18;95159.69;;;18.46;66.73
61408;BME280;47274;43.054;25.146;2023-08-01T04:17:44;95207.41;;;18.78;66.79
61408;BME280;47274;43.054;25.146;2023-08-01T04:20:12;95216.22;;;18.77;67.44
61408;BME280;47274;43.054;25.146;2023-08-01T04:22:38;95222.22;;;18.78;67.65
61408;BME280;47274;43.054;25.146;2023-08-01T04:25:04;95224.81;;;18.78;67.60
61408;BME280;47274;43.054;25.146;2023-08-01T04:27:30;95200.22;;;18.67;69.94
61408;BME280;47274;43.054;25.146;2023-08-01T04:29:55;95221.22;;;18.79;69.89
61408;BME280;47274;43.054;25.146;2023-08-01T04:32:24;95211.44;;;18.74;69.85
61408;BME280;47274;43.054;25.146;2023-08-01T04:34:50;95220.59;;;18.77;70.65
61408;BME280;47274;43.054;25.146;2023-08-01T04:37:18;95206.41;;;18.73;72.67
61408;BME280;47274;43.054;25.146;2023-08-01T04:39:47;95212.78;;;18.83;71.93
61408;BME280;47274;43.054;25.146;2023-08-01T04:42:13;95197.59;;;18.80;71.93
61408;BME280;47274;43.054;25.146;2023-08-01T04:44:39;95205.19;;;18.88;72.35
61408;BME280;47274;43.054;25.146;2023-08-01T04:47:05;95213.38;;;18.92;72.04
61408;BME280;47274;43.054;25.146;2023-08-01T04:49:36;95170.44;;;18.63;72.90
61408;BME280;47274;43.054;25.146;2023-08-01T04:52:05;95200.16;;;18.93;71.71
61408;BME280;47274;43.054;25.146;2023-08-01T04:54:31;95219.47;;;19.11;72.31
61408;BME280;47274;43.054;25.146;2023-08-01T04:57:01;95135.47;;;18.52;73.24
61408;BME280;47274;43.054;25.146;2023-08-01T04:59:27;95227.16;;;18.92;76.92
61408;BME280;47274;43.054;25.146;2023-08-01T05:01:53;95227.03;;;18.74;79.15
61408;BME280;47274;43.054;25.146;2023-08-01T05:04:18;95234.19;;;18.79;79.01
61408;BME280;47274;43.054;25.146;2023-08-01T05:06:44;95191.44;;;18.75;78.11
61408;BME280;47274;43.054;25.146;2023-08-01T05:09:12;95191.34;;;19.01;73.78
61408;BME280;47274;43.054;25.146;2023-08-01T05:11:41;95226.72;;;19.47;70.82
61408;BME280;47274;43.054;25.146;2023-08-01T05:14:15;95170.13;;;19.04;67.67
61408;BME280;47274;43.054;25.146;2023-08-01T05:16:41;95141.31;;;18.99;68.73
61408;BME280;47274;43.054;25.146;2023-08-01T05:19:17;95205.63;;;19.55;65.28
61408;BME280;47274;43.054;25.146;2023-08-01T05:21:43;95154.69;;;19.41;68.67
61408;BME280;47274;43.054;25.146;2023-08-01T05:24:09;95212.91;;;19.85;66.17
61408;BME280;47274;43.054;25.146;2023-08-01T05:26:36;95225.88;;;20.17;67.67
61408;BME280;47274;43.054;25.146;2023-08-01T05:29:02;95221.69;;;20.16;65.79
61408;BME280;47274;43.054;25.146;2023-08-01T05:31:28;95197.88;;;19.87;63.15
61408;BME280;47274;43.054;25.146;2023-08-01T05:33:54;95235.06;;;20.19;67.45
61408;BME280;47274;43.054;25.146;2023-08-01T05:36:20;95227.63;;;20.23;67.60
61408;BME280;47274;43.054;25.146;2023-08-01T05:38:45;95220.53;;;20.30;68.67
61408;BME280;47274;43.054;25.146;2023-08-01T05:41:11;95243.31;;;20.16;69.54
61408;BME280;47274;43.054;25.146;2023-08-01T05:43:37;95230.00;;;19.99;70.09
61408;BME280;47274;43.054;25.146;2023-08-01T05:46:03;95237.09;;;20.42;70.30
61408;BME280;47274;43.054;25.146;2023-08-01T05:48:29;95205.19;;;20.22;66.58
61408;BME280;47274;43.054;25.146;2023-08-01T05:50:55;95245.34;;;20.39;67.11
61408;BME280;47274;43.054;25.146;2023-08-01T05:53:21;95249.25;;;20.55;67.19
61408;BME280;47274;43.054;25.146;2023-08-01T05:55:47;95251.06;;;20.73;64.08
61408;BME280;47274;43.054;25.146;2023-08-01T05:58:13;95211.75;;;20.49;66.60
61408;BME280;47274;43.054;25.146;2023-08-01T06:00:39;95206.41;;;20.19;68.68
61408;BME280;47274;43.054;25.146;2023-08-01T06:03:08;95197.81;;;20.19;65.64
61408;BME280;47274;43.054;25.146;2023-08-01T06:05:46;95241.13;;;20.63;63.57
61408;BME280;47274;43.054;25.146;2023-08-01T06:08:24;95182.81;;;20.57;64.13
61408;BME280;47274;43.054;25.146;2023-08-01T06:10:50;95198.06;;;21.09;61.91
61408;BME280;47274;43.054;25.146;2023-08-01T06:13:18;95244.13;;;21.40;62.19
61408;BME280;47274;43.054;25.146;2023-08-01T06:15:47;95212.44;;;21.18;60.59
61408;BME280;47274;43.054;25.146;2023-08-01T06:18:16;95172.63;;;20.93;60.09
61408;BME280;47274;43.054;25.146;2023-08-01T06:20:44;95149.13;;;20.93;61.55
61408;BME280;47274;43.054;25.146;2023-08-01T06:23:17;95156.16;;;21.41;60.02
61408;BME280;47274;43.054;25.146;2023-08-01T06:25:55;95186.03;;;21.57;60.35
61408;BME280;47274;43.054;25.146;2023-08-01T06:28:24;95227.94;;;22.04;59.18
61408;BME280;47274;43.054;25.146;2023-08-01T06:30:50;95202.06;;;22.14;59.18
61408;BME280;47274;43.054;25.146;2023-08-01T06:33:15;95226.16;;;22.63;55.59
61408;BME280;47274;43.054;25.146;2023-08-01T06:35:41;95251.97;;;23.18;56.78
61408;BME280;47274;43.054;25.146;2023-08-01T06:38:07;95207.81;;;23.10;52.10
61408;BME280;47274;43.054;25.146;2023-08-01T06:40:33;95237.44;;;23.39;52.52
61408;BME280;47274;43.054;25.146;2023-08-01T06:43:01;95237.19;;;23.40;53.88
61408;BME280;47274;43.054;25.146;2023-08-01T06:45:34;95220.94;;;23.38;52.08
61408;BME280;47274;43.054;25.146;2023-08-01T06:48:05;95176.25;;;23.16;50.31
61408;BME280;47274;43.054;25.146;2023-08-01T06:50:40;95185.63;;;23.12;52.67
61408;BME280;47274;43.054;25.146;2023-08-01T06:53:06;95225.56;;;23.77;53.14
61408;BME280;47274;43.054;25.146;2023-08-01T06:55:36;95220.09;;;23.95;49.10
61408;BME280;47274;43.054;25.146;2023-08-01T06:58:02;95227.50;;;23.98;50.73
61408;BME280;47274;43.054;25.146;2023-08-01T07:00:30;95227.19;;;24.11;50.58
61408;BME280;47274;43.054;25.146;2023-08-01T07:02:57;95237.75;;;24.50;50.86
61408;BME280;47274;43.054;25.146;2023-08-01T07:05:23;95241.41;;;24.66;50.27
61408;BME280;47274;43.054;25.146;2023-08-01T07:07:49;95238.59;;;24.73;50.02
61408;BME280;47274;43.054;25.146;2023-08-01T07:10:20;95234.84;;;24.86;47.22
61408;BME280;47274;43.054;25.146;2023-08-01T07:12:46;95227.19;;;24.62;47.93
61408;BME280;47274;43.054;25.146;2023-08-01T07:15:12;95238.97;;;24.43;48.72
61408;BME280;47274;43.054;25.146;2023-08-01T07:17:45;95247.53;;;24.38;47.78
61408;BME280;47274;43.054;25.146;2023-08-01T07:20:13;95236.47;;;24.70;46.32
61408;BME280;47274;43.054;25.146;2023-08-01T07:22:40;95173.63;;;24.80;48.44
61408;BME280;47274;43.054;25.146;2023-08-01T07:25:06;95204.19;;;24.91;46.13
61408;BME280;47274;43.054;25.146;2023-08-01T07:27:32;95241.16;;;25.06;47.38
61408;BME280;47274;43.054;25.146;2023-08-01T07:29:57;95242.25;;;25.55;47.22
61408;BME280;47274;43.054;25.146;2023-08-01T07:32:26;95227.47;;;25.75;46.67
61408;BME280;47274;43.054;25.146;2023-08-01T07:34:54;95227.38;;;26.24;46.15
61408;BME280;47274;43.054;25.146;2023-08-01T07:37:20;95241.19;;;26.42;44.32
61408;BME280;47274;43.054;25.146;2023-08-01T07:39:45;95246.84;;;26.23;45.49
61408;BME280;47274;43.054;25.146;2023-08-01T07:42:11;95251.69;;;26.37;44.89
61408;BME280;47274;43.054;25.146;2023-08-01T07:44:37;95241.06;;;26.59;44.50
61408;BME280;47274;43.054;25.146;2023-08-01T07:47:03;95217.63;;;26.57;44.23
61408;BME280;47274;43.054;25.146;2023-08-01T07:49:39;95196.97;;;26.81;44.82
61408;BME280;47274;43.054;25.146;2023-08-01T07:52:05;95224.69;;;26.94;42.92
61408;BME280;47274;43.054;25.146;2023-08-01T07:54:33;95220.75;;;27.02;45.09
61408;BME280;47274;43.054;25.146;2023-08-01T07:57:02;95177.16;;;27.26;44.14
61408;BME280;47274;43.054;25.146;2023-08-01T07:59:28;95227.66;;;28.11;42.68
61408;BME280;47274;43.054;25.146;2023-08-01T08:01:54;95224.72;;;28.23;43.08
61408;BME280;47274;43.054;25.146;2023-08-01T08:04:20;95194.13;;;28.12;39.98
61408;BME280;47274;43.054;25.146;2023-08-01T08:06:46;95207.88;;;28.04;42.79
61408;BME280;47274;43.054;25.146;2023-08-01T08:09:12;95207.06;;;27.98;41.29
61408;BME280;47274;43.054;25.146;2023-08-01T08:11:37;95220.78;;;28.26;41.65
61408;BME280;47274;43.054;25.146;2023-08-01T08:14:03;95216.03;;;28.58;42.49
61408;BME280;47274;43.054;25.146;2023-08-01T08:16:30;95222.81;;;28.85;41.96
61408;BME280;47274;43.054;25.146;2023-08-01T08:18:55;95211.44;;;29.00;39.07
61408;BME280;47274;43.054;25.146;2023-08-01T08:21:21;95219.13;;;28.81;40.18
61408;BME280;47274;43.054;25.146;2023-08-01T08:23:47;95207.06;;;28.08;39.04
61408;BME280;47274;43.054;25.146;2023-08-01T08:26:13;95217.63;;;28.19;42.18
61408;BME280;47274;43.054;25.146;2023-08-01T08:28:42;95229.66;;;28.91;40.01
61408;BME280;47274;43.054;25.146;2023-08-01T08:31:08;95226.88;;;29.32;40.52
61408;BME280;47274;43.054;25.146;2023-08-01T08:33:34;95212.91;;;29.26;40.60
61408;BME280;47274;43.054;25.146;2023-08-01T08:35:59;95198.78;;;29.51;38.78
61408;BME280;47274;43.054;25.146;2023-08-01T08:38:25;95220.31;;;29.79;39.16
61408;BME280;47274;43.054;25.146;2023-08-01T08:41:09;95213.28;;;29.64;36.32
61408;BME280;47274;43.054;25.146;2023-08-01T08:43:36;95202.72;;;29.54;39.36
61408;BME280;47274;43.054;25.146;2023-08-01T08:46:04;95195.03;;;29.63;39.17
61408;BME280;47274;43.054;25.146;2023-08-01T08:48:31;95199.78;;;29.66;37.98
61408;BME280;47274;43.054;25.146;2023-08-01T08:51:00;95209.00;;;29.68;36.75
61408;BME280;47274;43.054;25.146;2023-08-01T08:53:26;95186.00;;;29.69;37.76
61408;BME280;47274;43.054;25.146;2023-08-01T08:55:52;95186.53;;;30.05;38.69
61408;BME280;47274;43.054;25.146;2023-08-01T08:58:18;95180.03;;;30.21;37.49
61408;BME280;47274;43.054;25.146;2023-08-01T09:00:44;95191.63;;;29.91;38.35
61408;BME280;47274;43.054;25.146;2023-08-01T09:03:10;95194.25;;;30.31;38.29
61408;BME280;47274;43.054;25.146;2023-08-01T09:05:48;95170.25;;;30.51;36.09
61408;BME280;47274;43.054;25.146;2023-08-01T09:08:21;95160.84;;;30.64;35.86
61408;BME280;47274;43.054;25.146;2023-08-01T09:10:47;95144.22;;;30.82;36.46
61408;BME280;47274;43.054;25.146;2023-08-01T09:13:14;95169.41;;;31.04;36.73
61408;BME280;47274;43.054;25.146;2023-08-01T09:15:41;95163.53;;;31.07;35.67
61408;BME280;47274;43.054;25.146;2023-08-01T09:18:10;95188.91;;;31.13;36.73
61408;BME280;47274;43.054;25.146;2023-08-01T09:20:49;95181.34;;;31.25;34.86
61408;BME280;47274;43.054;25.146;2023-08-01T09:23:16;95192.03;;;31.58;35.25
61408;BME280;47274;43.054;25.146;2023-08-01T09:25:45;95181.53;;;31.85;35.50
61408;BME280;47274;43.054;25.146;2023-08-01T09:28:24;95183.72;;;31.65;34.39
61408;BME280;47274;43.054;25.146;2023-08-01T09:30:54;95171.03;;;31.80;35.85
61408;BME280;47274;43.054;25.146;2023-08-01T09:33:40;95181.09;;;31.46;35.47
61408;BME280;47274;43.054;25.146;2023-08-01T09:36:07;95170.59;;;31.73;35.82
61408;BME280;47274;43.054;25.146;2023-08-01T09:38:39;95157.28;;;32.11;34.08
61408;BME280;47274;43.054;25.146;2023-08-01T09:41:05;95169.28;;;32.08;35.29
61408;BME280;47274;43.054;25.146;2023-08-01T09:43:35;95167.16;;;32.24;32.60
61408;BME280;47274;43.054;25.146;2023-08-01T09:46:01;95139.06;;;31.15;35.43
61408;BME280;47274;43.054;25.146;2023-08-01T09:48:29;95163.47;;;31.12;35.72
61408;BME280;47274;43.054;25.146;2023-08-01T09:51:08;95170.81;;;31.58;33.03
61408;BME280;47274;43.054;25.146;2023-08-01T09:53:35;95130.91;;;31.82;35.21
61408;BME280;47274;43.054;25.146;2023-08-01T09:56:02;95140.72;;;31.49;34.70
61408;BME280;47274;43.054;25.146;2023-08-01T09:58:34;95151.47;;;31.57;33.97
61408;BME280;47274;43.054;25.146;2023-08-01T10:01:00;95152.53;;;31.94;34.68
61408;BME280;47274;43.054;25.146;2023-08-01T10:03:33;95107.31;;;31.99;34.15
61408;BME280;47274;43.054;25.146;2023-08-01T10:05:59;95132.09;;;32.08;33.35
61408;BME280;47274;43.054;25.146;2023-08-01T10:08:30;95153.53;;;31.60;34.07
61408;BME280;47274;43.054;25.146;2023-08-01T10:10:59;95150.72;;;30.42;33.75
61408;BME280;47274;43.054;25.146;2023-08-01T10:13:27;95142.09;;;30.31;36.10
61408;BME280;47274;43.054;25.146;2023-08-01T10:15:54;95130.53;;;31.37;34.80
61408;BME280;47274;43.054;25.146;2023-08-01T10:18:20;95128.22;;;31.87;34.45
61408;BME280;47274;43.054;25.146;2023-08-01T10:20:47;95107.25;;;32.18;34.09
61408;BME280;47274;43.054;25.146;2023-08-01T10:23:13;95124.91;;;32.69;33.43
61408;BME280;47274;43.054;25.146;2023-08-01T10:25:39;95136.31;;;32.97;32.54
61408;BME280;47274;43.054;25.146;2023-08-01T10:28:06;95132.28;;;32.45;33.39
61408;BME280;47274;43.054;25.146;2023-08-01T10:30:35;95127.44;;;32.74;32.85
61408;BME280;47274;43.054;25.146;2023-08-01T10:33:06;95119.47;;;32.61;32.41
61408;BME280;47274;43.054;25.146;2023-08-01T10:35:39;95119.88;;;32.68;33.13
61408;BME280;47274;43.054;25.146;2023-08-01T10:38:10;95123.34;;;32.96;31.34
61408;BME280;47274;43.054;25.146;2023-08-01T10:40:41;95116.75;;;32.66;31.09
61408;BME280;47274;43.054;25.146;2023-08-01T10:43:21;95112.66;;;30.86;33.78
61408;BME280;47274;43.054;25.146;2023-08-01T10:45:48;95090.66;;;31.61;34.48
61408;BME280;47274;43.054;25.146;2023-08-01T10:48:14;95111.00;;;32.17;33.41
61408;BME280;47274;43.054;25.146;2023-08-01T10:50:40;95083.75;;;32.25;33.59
61408;BME280;47274;43.054;25.146;2023-08-01T10:53:08;95075.69;;;32.58;32.37
61408;BME280;47274;43.054;25.146;2023-08-01T10:55:45;95090.84;;;32.71;31.15
61408;BME280;47274;43.054;25.146;2023-08-01T10:58:12;95072.47;;;32.47;33.51
61408;BME280;47274;43.054;25.146;2023-08-01T11:00:45;95078.34;;;32.58;33.60
61408;BME280;47274;43.054;25.146;2023-08-01T11:03:11;95091.69;;;32.94;32.17
61408;BME280;47274;43.054;25.146;2023-08-01T11:05:40;95089.56;;;32.83;32.03
61408;BME280;47274;43.054;25.146;2023-08-01T11:08:06;95083.09;;;32.47;32.02
61408;BME280;47274;43.054;25.146;2023-08-01T11:10:32;95078.84;;;32.32;32.62
61408;BME280;47274;43.054;25.146;2023-08-01T11:12:59;95077.75;;;32.33;32.89
61408;BME280;47274;43.054;25.146;2023-08-01T11:15:25;95070.38;;;32.58;32.87
61408;BME280;47274;43.054;25.146;2023-08-01T11:17:52;95057.94;;;32.45;33.62
61408;BME280;47274;43.054;25.146;2023-08-01T11:20:20;95071.97;;;32.73;33.00
61408;BME280;47274;43.054;25.146;2023-08-01T11:22:53;95055.69;;;32.74;31.93
61408;BME280;47274;43.054;25.146;2023-08-01T11:25:30;95050.69;;;32.73;31.43
61408;BME280;47274;43.054;25.146;2023-08-01T11:28:17;95032.59;;;31.92;31.47
61408;BME280;47274;43.054;25.146;2023-08-01T11:30:43;95034.59;;;32.14;34.07
61408;BME280;47274;43.054;25.146;2023-08-01T11:35:43;95055.88;;;32.92;32.11
61408;BME280;47274;43.054;25.146;2023-08-01T11:38:09;95045.16;;;33.19;31.15
61408;BME280;47274;43.054;25.146;2023-08-01T11:40:35;95045.69;;;33.44;30.98
61408;BME280;47274;43.054;25.146;2023-08-01T11:43:01;95047.31;;;33.54;31.62
61408;BME280;47274;43.054;25.146;2023-08-01T11:45:27;95048.06;;;33.68;31.12
61408;BME280;47274;43.054;25.146;2023-08-01T11:47:55;95028.75;;;33.62;32.10
61408;BME280;47274;43.054;25.146;2023-08-01T11:50:25;95047.03;;;33.55;30.88
61408;BME280;47274;43.054;25.146;2023-08-01T11:52:56;95041.88;;;33.90;30.76
61408;BME280;47274;43.054;25.146;2023-08-01T11:55:25;95035.34;;;33.96;31.47
61408;BME280;47274;43.054;25.146;2023-08-01T11:57:59;95035.00;;;33.89;31.39
61408;BME280;47274;43.054;25.146;2023-08-01T12:00:27;95027.09;;;33.75;31.21
61408;BME280;47274;43.054;25.146;2023-08-01T12:03:04;95019.38;;;33.65;29.80
61408;BME280;47274;43.054;25.146;2023-08-01T12:05:30;95019.72;;;33.05;30.23
61408;BME280;47274;43.054;25.146;2023-08-01T12:08:07;94993.94;;;32.27;32.00
61408;BME280;47274;43.054;25.146;2023-08-01T12:10:38;95021.22;;;32.47;31.48
61408;BME280;47274;43.054;25.146;2023-08-01T12:13:04;95004.63;;;32.77;31.67
61408;BME280;47274;43.054;25.146;2023-08-01T12:15:30;95008.00;;;33.28;31.91
61408;BME280;47274;43.054;25.146;2023-08-01T12:17:56;95017.63;;;33.60;29.85
61408;BME280;47274;43.054;25.146;2023-08-01T12:20:22;95012.22;;;32.70;30.98
61408;BME280;47274;43.054;25.146;2023-08-01T12:22:48;95007.16;;;32.96;30.48
61408;BME280;47274;43.054;25.146;2023-08-01T12:25:14;95008.50;;;31.89;31.56
61408;BME280;47274;43.054;25.146;2023-08-01T12:27:40;95010.06;;;30.49;33.26
61408;BME280;47274;43.054;25.146;2023-08-01T12:30:09;94998.63;;;31.10;33.14
61408;BME280;47274;43.054;25.146;2023-08-01T12:32:34;95004.78;;;31.43;33.34
61408;BME280;47274;43.054;25.146;2023-08-01T12:35:03;94975.84;;;31.74;32.52
61408;BME280;47274;43.054;25.146;2023-08-01T12:37:31;94975.28;;;31.91;32.84
61408;BME280;47274;43.054;25.146;2023-08-01T12:39:59;94980.03;;;31.94;32.85
61408;BME280;47274;43.054;25.146;2023-08-01T12:42:25;94942.25;;;31.70;32.43
61408;BME280;47274;43.054;25.146;2023-08-01T12:44:51;94974.09;;;31.83;32.32
61408;BME280;47274;43.054;25.146;2023-08-01T12:47:16;94982.47;;;32.04;32.28
61408;BME280;47274;43.054;25.146;2023-08-01T12:49:45;94970.53;;;32.57;31.92
61408;BME280;47274;43.054;25.146;2023-08-01T12:52:22;94953.09;;;32.65;32.52
61408;BME280;47274;43.054;25.146;2023-08-01T12:54:50;94973.25;;;33.02;32.22
61408;BME280;47274;43.054;25.146;2023-08-01T12:57:16;94966.56;;;33.05;31.53
61408;BME280;47274;43.054;25.146;2023-08-01T12:59:42;94944.06;;;32.66;31.63